createdAt,value
2022-12-31T00:02:18.231Z,36.42
2022-12-31T00:04:44.871Z,32.75
2022-12-31T00:07:11.453Z,32.22
2022-12-31T00:09:37.997Z,32.47
2022-12-31T00:12:04.766Z,30.70
2022-12-31T00:14:31.402Z,33.75
2022-12-31T00:16:57.972Z,31.35
2022-12-31T00:19:24.579Z,32.28
2022-12-31T00:21:51.125Z,30.45
2022-12-31T00:24:17.689Z,30.92
2022-12-31T00:26:44.271Z,32.00
2022-12-31T00:29:10.844Z,31.60
2022-12-31T00:31:38.435Z,29.77
2022-12-31T00:34:05.982Z,31.17
2022-12-31T00:36:36.446Z,32.67
2022-12-31T00:39:05.253Z,33.47
2022-12-31T00:41:32.480Z,32.80
2022-12-31T00:43:59.226Z,35.78
2022-12-31T00:46:26.105Z,32.42
2022-12-31T00:48:53.040Z,33.50
2022-12-31T00:51:22.543Z,33.20
2022-12-31T00:53:49.734Z,33.80
2022-12-31T00:56:19.387Z,33.53
2022-12-31T00:58:46.258Z,33.40
2022-12-31T01:01:39.048Z,33.35
2022-12-31T01:04:07.765Z,31.50
2022-12-31T01:06:34.871Z,33.05
2022-12-31T01:09:01.481Z,31.13
2022-12-31T01:11:31.081Z,32.20
2022-12-31T01:13:59.301Z,31.55
2022-12-31T01:16:37.976Z,31.40
2022-12-31T01:19:07.961Z,30.38
2022-12-31T01:21:36.145Z,31.27
2022-12-31T01:24:03.331Z,31.08
2022-12-31T01:26:30.139Z,30.33
2022-12-31T01:28:57.024Z,30.40
2022-12-31T01:31:24.223Z,32.75
2022-12-31T01:33:51.933Z,29.85
2022-12-31T01:36:27.575Z,29.85
2022-12-31T01:38:56.049Z,30.40
2022-12-31T01:41:25.840Z,31.50
2022-12-31T01:43:54.406Z,32.72
2022-12-31T01:46:42.932Z,29.45
2022-12-31T01:49:35.320Z,31.02
2022-12-31T01:52:30.372Z,31.05
2022-12-31T01:55:38.368Z,32.45
2022-12-31T01:58:17.319Z,31.75
2022-12-31T02:00:45.179Z,30.92
2022-12-31T02:03:13.291Z,31.88
2022-12-31T02:06:01.903Z,33.95
2022-12-31T02:08:28.588Z,30.83
2022-12-31T02:10:55.119Z,31.30
2022-12-31T02:13:21.906Z,30.92
2022-12-31T02:15:58.364Z,31.20
2022-12-31T02:18:46.600Z,33.75
2022-12-31T02:21:32.017Z,31.60
2022-12-31T02:24:17.106Z,31.98
2022-12-31T02:27:15.901Z,31.67
2022-12-31T02:30:11.241Z,32.13
2022-12-31T02:32:50.194Z,32.95
2022-12-31T02:35:19.783Z,32.65
2022-12-31T02:37:51.653Z,31.30
2022-12-31T02:40:21.392Z,30.58
2022-12-31T02:42:54.872Z,31.20
2022-12-31T02:45:29.708Z,31.30
2022-12-31T02:48:05.245Z,30.88
2022-12-31T02:51:12.737Z,30.38
2022-12-31T02:54:04.580Z,29.95
2022-12-31T02:56:35.389Z,31.08
2022-12-31T02:59:22.959Z,30.40
2022-12-31T03:02:14.105Z,31.70
2022-12-31T03:04:43.932Z,29.55
2022-12-31T03:07:14.856Z,30.15
2022-12-31T03:09:41.430Z,31.70
2022-12-31T03:12:28.231Z,29.90
2022-12-31T03:14:54.857Z,29.42
2022-12-31T03:17:21.453Z,31.67
2022-12-31T03:20:06.370Z,29.80
2022-12-31T03:22:37.743Z,29.50
2022-12-31T03:25:29.984Z,30.15
2022-12-31T03:27:56.770Z,31.67
2022-12-31T03:30:24.832Z,30.10
2022-12-31T03:32:52.406Z,29.73
2022-12-31T03:35:20.813Z,30.67
2022-12-31T03:37:49.026Z,28.98
2022-12-31T03:40:16.883Z,29.45
2022-12-31T03:42:43.513Z,29.52
2022-12-31T03:45:11.626Z,30.95
2022-12-31T03:47:38.393Z,29.60
2022-12-31T03:50:06.928Z,30.55
2022-12-31T03:52:33.609Z,30.52
2022-12-31T03:55:02.140Z,28.90
2022-12-31T03:57:29.269Z,30.42
2022-12-31T03:59:55.954Z,29.00
2022-12-31T04:02:28.636Z,32.55
2022-12-31T04:04:55.960Z,31.40
2022-12-31T04:07:22.669Z,29.55
2022-12-31T04:09:49.427Z,31.67
2022-12-31T04:12:16.024Z,31.02
2022-12-31T04:14:42.596Z,31.73
2022-12-31T04:17:09.253Z,31.63
2022-12-31T04:19:35.847Z,30.60
2022-12-31T04:22:02.402Z,31.05
2022-12-31T04:24:29.100Z,31.92
2022-12-31T04:26:55.758Z,30.40
2022-12-31T04:29:22.536Z,32.30
2022-12-31T04:31:49.098Z,33.65
2022-12-31T04:34:15.723Z,34.15
2022-12-31T04:36:42.280Z,32.22
2022-12-31T04:39:09.288Z,32.65
2022-12-31T04:41:35.871Z,32.38
2022-12-31T04:44:02.581Z,33.28
2022-12-31T04:46:31.859Z,33.85
2022-12-31T04:48:59.133Z,33.00
2022-12-31T04:51:27.310Z,34.40
2022-12-31T04:53:54.674Z,34.28
2022-12-31T04:56:21.342Z,33.92
2022-12-31T04:58:47.925Z,32.83
2022-12-31T05:01:15.108Z,30.70
2022-12-31T05:03:41.799Z,33.47
2022-12-31T05:06:12.634Z,33.10
2022-12-31T05:08:39.355Z,32.95
2022-12-31T05:11:05.979Z,35.20
2022-12-31T05:13:33.556Z,31.60
2022-12-31T05:16:02.147Z,32.38
2022-12-31T05:18:29.655Z,32.90
2022-12-31T05:20:56.220Z,31.88
2022-12-31T05:23:23.202Z,32.25
2022-12-31T05:25:49.921Z,32.47
2022-12-31T05:28:17.114Z,31.67
2022-12-31T05:30:44.225Z,32.60
2022-12-31T05:33:10.987Z,33.15
2022-12-31T05:35:37.578Z,32.38
2022-12-31T05:38:04.200Z,33.58
2022-12-31T05:40:30.794Z,33.22
2022-12-31T05:42:57.345Z,35.30
2022-12-31T05:45:30.161Z,33.80
2022-12-31T05:47:57.444Z,33.53
2022-12-31T05:50:24.058Z,33.05
2022-12-31T05:52:50.701Z,35.60
2022-12-31T05:55:17.493Z,32.10
2022-12-31T05:57:44.062Z,32.85
2022-12-31T06:00:11.706Z,33.05
2022-12-31T06:02:38.403Z,35.15
2022-12-31T06:05:05.514Z,33.25
2022-12-31T06:07:32.123Z,35.55
2022-12-31T06:09:58.767Z,36.42
2022-12-31T06:12:25.516Z,31.70
2022-12-31T06:14:52.234Z,32.28
2022-12-31T06:17:19.227Z,32.85
2022-12-31T06:19:46.984Z,32.13
2022-12-31T06:22:14.068Z,30.90
2022-12-31T06:24:40.732Z,32.92
2022-12-31T06:27:07.326Z,29.75
2022-12-31T06:29:33.895Z,31.63
2022-12-31T06:32:00.444Z,30.77
2022-12-31T06:34:27.038Z,31.92
2022-12-31T06:36:53.679Z,31.10
2022-12-31T06:39:20.365Z,30.58
2022-12-31T06:41:46.912Z,31.42
2022-12-31T06:44:14.906Z,30.25
2022-12-31T06:46:41.532Z,32.30
2022-12-31T06:49:08.142Z,29.92
2022-12-31T06:51:34.698Z,30.58
2022-12-31T06:54:01.449Z,31.52
2022-12-31T06:56:33.966Z,33.00
2022-12-31T06:59:01.653Z,29.63
2022-12-31T07:01:32.200Z,31.92
2022-12-31T07:04:23.719Z,32.88
2022-12-31T07:06:53.385Z,31.15
2022-12-31T07:09:27.747Z,30.33
2022-12-31T07:12:16.455Z,33.30
2022-12-31T07:15:02.556Z,32.80
2022-12-31T07:18:09.979Z,31.25
2022-12-31T07:20:36.884Z,32.35
2022-12-31T07:23:03.622Z,32.33
2022-12-31T07:25:31.264Z,29.50
2022-12-31T07:28:07.783Z,32.28
2022-12-31T07:30:34.346Z,28.55
2022-12-31T07:33:25.489Z,33.13
2022-12-31T07:36:13.716Z,33.00
2022-12-31T07:39:01.519Z,32.90
2022-12-31T07:41:37.412Z,31.73
2022-12-31T07:44:11.207Z,33.08
2022-12-31T07:46:57.473Z,35.67
2022-12-31T07:49:25.849Z,31.52
2022-12-31T07:51:53.528Z,34.88
2022-12-31T07:54:20.553Z,32.45
2022-12-31T07:56:48.094Z,32.38
2022-12-31T07:59:33.776Z,34.35
2022-12-31T08:02:15.621Z,33.72
2022-12-31T08:05:01.785Z,32.97
2022-12-31T08:07:34.499Z,35.50
2022-12-31T08:10:08.314Z,34.25
2022-12-31T08:12:39.865Z,34.70
2022-12-31T08:15:15.268Z,34.22
2022-12-31T08:17:42.425Z,36.63
2022-12-31T08:20:16.392Z,35.38
2022-12-31T08:23:08.988Z,34.28
2022-12-31T08:25:54.550Z,37.55
2022-12-31T08:28:49.097Z,34.58
2022-12-31T08:31:27.891Z,38.60
2022-12-31T08:34:06.375Z,36.83
2022-12-31T08:36:53.430Z,38.47
2022-12-31T08:39:38.213Z,37.72
2022-12-31T08:42:35.731Z,39.47
2022-12-31T08:45:20.279Z,37.88
2022-12-31T08:47:59.629Z,42.47
2022-12-31T08:50:27.196Z,39.78
2022-12-31T08:52:54.463Z,38.10
2022-12-31T08:55:21.455Z,42.47
2022-12-31T08:58:03.267Z,41.95
2022-12-31T09:00:31.015Z,41.88
2022-12-31T09:03:24.590Z,42.65
2022-12-31T09:05:54.163Z,42.88
2022-12-31T09:08:26.605Z,44.33
2022-12-31T09:11:00.898Z,47.28
2022-12-31T09:13:52.802Z,49.60
2022-12-31T09:16:30.567Z,51.22
2022-12-31T09:18:57.169Z,55.17
2022-12-31T09:21:23.940Z,53.88
2022-12-31T09:23:50.772Z,55.28
2022-12-31T09:26:29.262Z,59.03
2022-12-31T09:29:28.155Z,57.92
2022-12-31T09:32:08.799Z,59.00
2022-12-31T09:35:04.050Z,61.05
2022-12-31T09:37:50.548Z,61.17
2022-12-31T09:40:40.508Z,62.63
2022-12-31T09:43:44.330Z,61.92
2022-12-31T09:46:38.836Z,62.53
2022-12-31T09:49:21.561Z,63.07
2022-12-31T09:52:29.447Z,60.03
2022-12-31T09:54:58.625Z,61.20
2022-12-31T09:57:39.344Z,61.88
2022-12-31T10:00:21.744Z,61.17
2022-12-31T10:03:15.725Z,58.47
2022-12-31T10:06:04.432Z,63.30
2022-12-31T10:09:02.440Z,64.22
2022-12-31T10:11:31.960Z,65.32
2022-12-31T10:14:17.108Z,65.47
2022-12-31T10:17:07.288Z,67.30
2022-12-31T10:19:43.663Z,66.28
2022-12-31T10:22:48.566Z,67.07
2022-12-31T10:25:40.316Z,65.83
2022-12-31T10:28:28.296Z,68.78
2022-12-31T10:31:26.070Z,69.50
2022-12-31T10:34:30.866Z,72.57
2022-12-31T10:37:09.345Z,69.55
2022-12-31T10:40:00.817Z,69.93
2022-12-31T10:42:48.251Z,66.13
2022-12-31T10:46:03.156Z,64.68
2022-12-31T10:48:40.329Z,66.15
2022-12-31T10:51:31.782Z,64.07
2022-12-31T10:54:19.939Z,65.75
2022-12-31T10:57:32.668Z,62.22
2022-12-31T11:00:12.379Z,68.38
2022-12-31T11:02:57.260Z,61.70
2022-12-31T11:06:00.766Z,71.10
2022-12-31T11:08:56.859Z,54.47
2022-12-31T11:11:47.940Z,64.65
2022-12-31T11:14:49.887Z,56.03
2022-12-31T11:17:21.198Z,63.80
2022-12-31T11:20:30.833Z,61.03
2022-12-31T11:23:02.615Z,59.22
2022-12-31T11:25:34.949Z,55.90
2022-12-31T11:28:20.574Z,55.00
2022-12-31T11:31:09.065Z,53.72
2022-12-31T11:33:50.463Z,53.80
2022-12-31T11:36:31.432Z,66.38
2022-12-31T11:39:24.595Z,55.70
2022-12-31T11:42:20.588Z,51.80
2022-12-31T11:45:24.716Z,50.00
2022-12-31T11:48:29.716Z,50.40
2022-12-31T11:51:23.691Z,47.25
2022-12-31T11:54:01.224Z,48.10
2022-12-31T11:56:35.502Z,49.30
2022-12-31T11:59:06.257Z,50.20
2022-12-31T12:02:01.728Z,49.63
2022-12-31T12:04:28.391Z,48.47
2022-12-31T12:06:55.075Z,52.63
2022-12-31T12:09:31.112Z,50.83
2022-12-31T12:12:03.839Z,53.40
2022-12-31T12:14:32.580Z,52.75
2022-12-31T12:17:04.671Z,52.38
2022-12-31T12:19:34.175Z,50.47
2022-12-31T12:22:19.852Z,56.50
2022-12-31T12:25:23.195Z,57.20
2022-12-31T12:27:50.060Z,55.13
2022-12-31T12:30:25.480Z,60.58
2022-12-31T12:32:57.731Z,71.93
2022-12-31T12:35:28.655Z,90.20
2022-12-31T12:38:04.182Z,93.95
2022-12-31T12:40:34.301Z,105.72
2022-12-31T12:43:02.614Z,106.18
2022-12-31T12:45:51.672Z,93.93
2022-12-31T12:48:34.553Z,84.65
2022-12-31T12:51:06.548Z,80.75
2022-12-31T12:53:57.005Z,85.85
2022-12-31T12:56:27.540Z,80.20
2022-12-31T12:59:19.691Z,70.25
2022-12-31T13:02:01.551Z,77.45
2022-12-31T13:05:27.694Z,86.65
2022-12-31T13:10:59.919Z,66.68
2022-12-31T13:13:32.258Z,62.05
2022-12-31T13:16:17.182Z,62.47
2022-12-31T13:22:01.579Z,64.03
2022-12-31T13:24:59.084Z,60.78
2022-12-31T13:27:37.998Z,57.00
2022-12-31T13:30:15.382Z,57.92
2022-12-31T13:32:59.369Z,54.30
2022-12-31T13:35:45.425Z,54.03
2022-12-31T13:38:21.723Z,51.30
2022-12-31T13:40:57.179Z,52.60
2022-12-31T13:43:51.085Z,52.30
2022-12-31T13:46:53.333Z,50.80
2022-12-31T13:49:43.824Z,49.75
2022-12-31T13:52:35.000Z,50.55
2022-12-31T13:55:37.167Z,50.30
2022-12-31T13:58:12.930Z,52.65
2022-12-31T14:01:15.861Z,53.17
2022-12-31T14:04:12.824Z,53.30
2022-12-31T14:07:07.675Z,59.38
2022-12-31T14:09:35.340Z,58.80
2022-12-31T14:12:20.255Z,62.83
2022-12-31T14:14:49.736Z,64.00
2022-12-31T14:17:19.358Z,67.65
2022-12-31T14:20:12.999Z,72.35
2022-12-31T14:23:22.045Z,74.95
2022-12-31T14:25:57.023Z,70.95
2022-12-31T14:28:29.964Z,107.25
2022-12-31T14:31:05.236Z,69.72
2022-12-31T14:33:43.275Z,67.32
2022-12-31T14:36:26.106Z,71.13
2022-12-31T14:39:29.484Z,70.75
2022-12-31T14:42:05.166Z,67.43
2022-12-31T14:45:13.415Z,70.47
2022-12-31T14:47:52.472Z,75.50
2022-12-31T14:50:28.154Z,76.63
2022-12-31T14:52:56.198Z,80.03
2022-12-31T14:55:29.387Z,79.80
2022-12-31T15:00:57.083Z,82.13
2022-12-31T15:03:33.388Z,84.00
2022-12-31T15:06:28.619Z,85.15
2022-12-31T15:09:16.789Z,81.28
2022-12-31T15:12:04.760Z,84.10
2022-12-31T15:14:49.628Z,84.00
2022-12-31T15:17:21.847Z,84.35
2022-12-31T15:20:17.440Z,86.10
2022-12-31T15:22:48.785Z,86.03
2022-12-31T15:25:38.385Z,85.70
2022-12-31T15:28:30.557Z,87.63
2022-12-31T15:31:04.844Z,87.18
2022-12-31T15:33:54.762Z,89.88
2022-12-31T15:36:28.219Z,89.25
2022-12-31T15:39:36.959Z,88.25
2022-12-31T15:42:36.809Z,83.70
2022-12-31T15:45:03.793Z,85.60
2022-12-31T15:47:37.673Z,90.47
2022-12-31T15:50:12.355Z,89.60
2022-12-31T15:52:47.823Z,88.70
2022-12-31T15:55:44.149Z,90.88
2022-12-31T15:58:15.718Z,86.90
2022-12-31T16:00:51.398Z,91.85
2022-12-31T16:03:24.106Z,89.68
2022-12-31T16:05:52.428Z,92.32
2022-12-31T16:08:25.535Z,90.70
2022-12-31T16:10:54.469Z,94.95
2022-12-31T16:13:23.866Z,96.88
2022-12-31T16:15:57.743Z,91.82
2022-12-31T16:18:24.376Z,92.78
2022-12-31T16:20:51.960Z,94.05
2022-12-31T16:23:22.710Z,97.00
2022-12-31T16:25:51.601Z,96.85
2022-12-31T16:28:31.251Z,98.10
2022-12-31T16:31:04.198Z,95.15
2022-12-31T16:33:31.296Z,93.38
2022-12-31T16:36:00.636Z,95.50
2022-12-31T16:38:33.056Z,93.28
2022-12-31T16:41:02.735Z,91.45
2022-12-31T16:43:40.724Z,93.30
2022-12-31T16:46:30.506Z,92.50
2022-12-31T16:49:16.878Z,89.30
2022-12-31T16:51:43.461Z,92.82
2022-12-31T16:54:25.913Z,93.57
2022-12-31T16:56:52.771Z,88.43
2022-12-31T16:59:35.958Z,94.40
2022-12-31T17:02:11.564Z,95.63
2022-12-31T17:04:43.213Z,92.55
2022-12-31T17:07:27.361Z,92.22
2022-12-31T17:10:36.172Z,87.25
2022-12-31T17:13:36.172Z,87.22
2022-12-31T17:16:03.815Z,83.45
2022-12-31T17:18:38.631Z,96.00
2022-12-31T17:21:09.705Z,95.68
2022-12-31T17:23:39.844Z,95.35
2022-12-31T17:26:06.508Z,92.78
2022-12-31T17:28:41.996Z,95.45
2022-12-31T17:31:27.964Z,90.35
2022-12-31T17:34:04.325Z,94.72
2022-12-31T17:36:31.079Z,87.07
2022-12-31T17:39:17.469Z,88.07
2022-12-31T17:41:46.291Z,76.43
2022-12-31T17:44:20.733Z,90.68
2022-12-31T17:46:49.244Z,77.78
2022-12-31T17:49:16.161Z,83.05
2022-12-31T17:51:47.596Z,83.80
2022-12-31T17:54:18.950Z,84.30
2022-12-31T17:56:46.332Z,77.30
2022-12-31T17:59:18.278Z,77.45
2022-12-31T18:01:45.480Z,74.07
2022-12-31T18:04:17.318Z,74.85
2022-12-31T18:06:44.676Z,69.93
2022-12-31T18:09:11.641Z,78.45
2022-12-31T18:11:40.395Z,66.72
2022-12-31T18:14:07.262Z,66.50
2022-12-31T18:16:34.390Z,59.70
2022-12-31T18:19:01.423Z,61.30
2022-12-31T18:21:34.771Z,59.30
2022-12-31T18:26:29.544Z,60.38
2022-12-31T18:29:10.487Z,58.67
2022-12-31T18:31:37.569Z,52.70
2022-12-31T18:34:04.244Z,53.03
2022-12-31T18:36:30.933Z,54.58
2022-12-31T18:38:57.459Z,54.42
2022-12-31T18:41:27.791Z,53.10
2022-12-31T18:43:55.555Z,53.75
2022-12-31T18:46:24.172Z,52.70
2022-12-31T18:48:51.167Z,51.35
2022-12-31T18:51:21.682Z,47.92
2022-12-31T18:53:51.008Z,48.13
2022-12-31T18:56:19.941Z,46.72
2022-12-31T18:58:47.541Z,43.67
2022-12-31T19:01:36.811Z,46.60
2022-12-31T19:04:13.394Z,46.63
2022-12-31T19:06:40.087Z,46.72
2022-12-31T19:09:30.402Z,48.03
2022-12-31T19:11:53.291Z,43.72
2022-12-31T19:14:24.162Z,47.38
2022-12-31T19:16:52.363Z,48.85
2022-12-31T19:19:19.141Z,43.83
2022-12-31T19:21:46.214Z,44.08
2022-12-31T19:24:17.663Z,46.95
2022-12-31T19:26:44.523Z,45.30
2022-12-31T19:29:25.455Z,42.03
2022-12-31T19:31:52.367Z,42.17
2022-12-31T19:34:19.039Z,42.67
2022-12-31T19:36:46.339Z,42.60
2022-12-31T19:39:19.533Z,46.63
2022-12-31T19:41:50.137Z,44.03
2022-12-31T19:44:21.179Z,42.65
2022-12-31T19:46:49.250Z,46.42
2022-12-31T19:49:15.880Z,47.13
2022-12-31T19:51:42.483Z,48.05
2022-12-31T19:54:11.831Z,46.35
2022-12-31T19:56:38.428Z,45.38
2022-12-31T19:59:09.473Z,43.30
2022-12-31T20:01:36.212Z,48.05
2022-12-31T20:04:02.933Z,50.70
2022-12-31T20:06:29.504Z,52.45
2022-12-31T20:08:56.181Z,49.47
2022-12-31T20:11:24.361Z,50.03
2022-12-31T20:13:53.956Z,51.90
2022-12-31T20:16:23.572Z,55.50
2022-12-31T20:18:50.804Z,52.28
2022-12-31T20:21:23.814Z,52.50
2022-12-31T20:23:52.303Z,47.13
2022-12-31T20:26:20.182Z,50.15
2022-12-31T20:28:47.020Z,50.45
2022-12-31T20:31:16.483Z,51.92
2022-12-31T20:33:43.531Z,57.97
2022-12-31T20:36:12.895Z,56.90
2022-12-31T20:38:39.563Z,58.63
2022-12-31T20:41:11.119Z,61.50
2022-12-31T20:43:37.787Z,62.25
2022-12-31T20:46:15.707Z,63.22
2022-12-31T20:48:42.985Z,63.35
2022-12-31T20:51:09.816Z,59.35
2022-12-31T20:53:36.389Z,61.42
2022-12-31T20:56:07.754Z,64.47
2022-12-31T20:58:34.771Z,62.95
2022-12-31T21:01:01.557Z,63.20
2022-12-31T21:04:03.687Z,60.20
2022-12-31T21:06:15.600Z,58.92
2022-12-31T21:08:42.340Z,57.70
2022-12-31T21:11:28.286Z,49.20
2022-12-31T21:13:58.715Z,48.60
2022-12-31T21:16:26.133Z,48.53
2022-12-31T21:18:52.952Z,48.90
2022-12-31T21:21:20.104Z,50.53
2022-12-31T21:23:46.791Z,47.45
2022-12-31T21:26:13.504Z,45.63
2022-12-31T21:28:41.599Z,45.00
2022-12-31T21:31:11.431Z,45.00
2022-12-31T21:33:38.291Z,46.30
2022-12-31T21:36:05.186Z,45.00
2022-12-31T21:38:32.238Z,43.33
2022-12-31T21:41:06.781Z,45.78
2022-12-31T21:43:33.865Z,42.60
2022-12-31T21:46:06.096Z,42.55
2022-12-31T21:48:33.671Z,43.20
2022-12-31T21:51:27.127Z,43.92
2022-12-31T21:53:53.954Z,45.63
2022-12-31T21:56:21.703Z,47.35
2022-12-31T21:59:15.339Z,45.25
2022-12-31T22:02:00.852Z,45.38
2022-12-31T22:05:00.817Z,41.25
2022-12-31T22:07:14.593Z,48.15
2022-12-31T22:09:41.117Z,52.45
2022-12-31T22:12:07.873Z,47.67
2022-12-31T22:14:34.402Z,47.75
2022-12-31T22:17:01.660Z,46.20
2022-12-31T22:19:28.191Z,48.53
2022-12-31T22:21:54.811Z,50.10
2022-12-31T22:24:21.362Z,45.70
2022-12-31T22:26:47.912Z,49.95
2022-12-31T22:29:14.728Z,51.88
2022-12-31T22:31:41.320Z,48.47
2022-12-31T22:34:07.890Z,49.60
2022-12-31T22:36:34.533Z,60.50
2022-12-31T22:39:01.168Z,48.90
2022-12-31T22:41:28.262Z,42.63
2022-12-31T22:44:02.983Z,44.08
2022-12-31T22:46:31.730Z,43.63
2022-12-31T22:49:00.174Z,78.15
2022-12-31T22:51:55.233Z,60.78
2022-12-31T22:54:16.188Z,59.53
2022-12-31T22:56:42.794Z,62.30
2022-12-31T22:59:09.971Z,63.05
2022-12-31T23:01:37.187Z,57.95
2022-12-31T23:04:04.377Z,49.35
2022-12-31T23:06:31.094Z,47.35
2022-12-31T23:09:16.456Z,49.78
2022-12-31T23:11:43.624Z,48.15
2022-12-31T23:14:34.364Z,43.97
2022-12-31T23:17:30.745Z,43.95
2022-12-31T23:20:18.210Z,44.60
2022-12-31T23:23:03.826Z,42.95
2022-12-31T23:25:52.749Z,43.38
2022-12-31T23:28:24.594Z,43.40
2022-12-31T23:30:52.240Z,42.80
2022-12-31T23:33:22.196Z,45.50
2022-12-31T23:35:48.986Z,43.22
2022-12-31T23:38:17.544Z,52.80
2022-12-31T23:40:44.763Z,50.28
2022-12-31T23:43:21.114Z,47.55
2022-12-31T23:45:49.841Z,48.83
2022-12-31T23:48:16.353Z,46.67
2022-12-31T23:50:45.379Z,49.92
2022-12-31T23:53:15.835Z,51.67
2022-12-31T23:55:42.404Z,49.85
2022-12-31T23:58:08.955Z,54.13
